createdAt,value
2019-05-23T00:01:45.542Z,101642.25
2019-05-23T00:04:31.911Z,101641.48
2019-05-23T00:07:01.970Z,101645.33
2019-05-23T00:09:30.623Z,101636.69
2019-05-23T00:12:01.009Z,101637.30
2019-05-23T00:14:39.660Z,101642.20
2019-05-23T00:17:11.390Z,101639.80
2019-05-23T00:19:40.473Z,101641.72
2019-05-23T00:22:11.428Z,101642.02
2019-05-23T00:24:42.564Z,101637.14
2019-05-23T00:27:12.802Z,101638.55
2019-05-23T00:29:43.284Z,101646.70
2019-05-23T00:32:25.577Z,101644.30
2019-05-23T00:34:54.428Z,101641.08
2019-05-23T00:37:24.161Z,101639.52
2019-05-23T00:39:53.090Z,101639.30
2019-05-23T00:42:21.809Z,101641.48
2019-05-23T00:44:51.770Z,101639.94
2019-05-23T00:47:20.336Z,101641.05
2019-05-23T00:49:50.407Z,101642.98
2019-05-23T00:52:18.839Z,101649.78
2019-05-23T00:54:47.588Z,101635.42
2019-05-23T00:57:16.396Z,101650.09
2019-05-23T00:59:45.469Z,101644.98
2019-05-23T01:02:13.825Z,101642.81
2019-05-23T01:04:42.269Z,101645.54
2019-05-23T01:07:12.618Z,101637.69
2019-05-23T01:09:42.519Z,101640.41
2019-05-23T01:12:12.432Z,101637.48
2019-05-23T01:14:41.635Z,101636.66
2019-05-23T01:17:10.245Z,101638.61
2019-05-23T01:19:39.731Z,101636.99
2019-05-23T01:22:09.694Z,101634.30
2019-05-23T01:24:39.611Z,101639.47
2019-05-23T01:27:08.558Z,101636.50
2019-05-23T01:29:38.783Z,101625.67
2019-05-23T01:32:11.700Z,101626.48
2019-05-23T01:34:40.107Z,101633.00
2019-05-23T01:37:09.014Z,101624.61
2019-05-23T01:39:37.819Z,101624.36
2019-05-23T01:42:07.543Z,101620.31
2019-05-23T01:44:36.038Z,101621.67
2019-05-23T01:47:06.012Z,101625.22
2019-05-23T01:49:34.487Z,101615.48
2019-05-23T01:52:02.934Z,101620.91
2019-05-23T01:54:32.078Z,101620.36
2019-05-23T01:57:00.824Z,101618.22
2019-05-23T01:59:29.308Z,101618.50
2019-05-23T02:01:57.678Z,101607.70
2019-05-23T02:04:26.018Z,101610.97
2019-05-23T02:06:54.376Z,101608.52
2019-05-23T02:09:23.522Z,101607.45
2019-05-23T02:11:52.441Z,101610.16
2019-05-23T02:14:21.458Z,101614.50
2019-05-23T02:16:50.769Z,101612.87
2019-05-23T02:19:20.637Z,101612.09
2019-05-23T02:21:49.465Z,101610.47
2019-05-23T02:24:18.808Z,101613.73
2019-05-23T02:26:47.086Z,101609.96
2019-05-23T02:29:15.872Z,101600.22
2019-05-23T02:31:45.127Z,101602.41
2019-05-23T02:34:13.882Z,101603.77
2019-05-23T02:36:42.918Z,101601.61
2019-05-23T02:39:21.848Z,101600.03
2019-05-23T02:41:55.434Z,101607.08
2019-05-23T02:44:25.363Z,101602.48
2019-05-23T02:47:11.629Z,101603.56
2019-05-23T02:49:41.623Z,101603.84
2019-05-23T02:52:28.686Z,101598.72
2019-05-23T02:54:56.973Z,101592.80
2019-05-23T02:57:25.450Z,101591.97
2019-05-23T02:59:57.074Z,101596.58
2019-05-23T03:02:47.239Z,101588.48
2019-05-23T03:05:17.234Z,101588.75
2019-05-23T03:07:45.535Z,101590.40
2019-05-23T03:10:14.114Z,101587.70
2019-05-23T03:12:43.885Z,101588.23
2019-05-23T03:15:12.993Z,101585.54
2019-05-23T03:17:41.286Z,101576.92
2019-05-23T03:20:11.548Z,101575.30
2019-05-23T03:22:46.368Z,101564.48
2019-05-23T03:25:36.892Z,101566.11
2019-05-23T03:28:07.548Z,101567.47
2019-05-23T03:30:40.209Z,101560.44
2019-05-23T03:33:10.453Z,101565.05
2019-05-23T03:35:43.091Z,101556.94
2019-05-23T03:38:11.397Z,101559.92
2019-05-23T03:40:40.117Z,101556.11
2019-05-23T03:43:09.519Z,101559.92
2019-05-23T03:45:40.025Z,101559.92
2019-05-23T03:48:08.713Z,101558.57
2019-05-23T03:50:37.019Z,101553.97
2019-05-23T03:53:06.432Z,101556.39
2019-05-23T03:55:36.404Z,101552.34
2019-05-23T03:58:05.024Z,101551.55
2019-05-23T04:00:37.880Z,101552.63
2019-05-23T04:03:06.399Z,101550.48
2019-05-23T04:05:35.279Z,101550.20
2019-05-23T04:08:04.585Z,101556.16
2019-05-23T04:10:32.856Z,101548.58
2019-05-23T04:13:01.190Z,101547.23
2019-05-23T04:15:30.607Z,101547.78
2019-05-23T04:17:59.261Z,101550.75
2019-05-23T04:20:28.526Z,101553.17
2019-05-23T04:22:56.821Z,101550.75
2019-05-23T04:25:25.534Z,101552.90
2019-05-23T04:27:54.585Z,101558.81
2019-05-23T04:30:22.935Z,101555.86
2019-05-23T04:32:51.675Z,101553.16
2019-05-23T04:35:20.025Z,101554.50
2019-05-23T04:37:49.608Z,101558.52
2019-05-23T04:40:18.455Z,101548.53
2019-05-23T04:42:46.895Z,101552.02
2019-05-23T04:45:15.561Z,101548.24
2019-05-23T04:47:43.861Z,101551.20
2019-05-23T04:50:13.987Z,101551.98
2019-05-23T04:52:43.050Z,101550.61
2019-05-23T04:55:12.889Z,101549.20
2019-05-23T04:57:42.750Z,101549.17
2019-05-23T05:00:15.511Z,101548.63
2019-05-23T05:02:44.765Z,101553.46
2019-05-23T05:05:13.858Z,101549.38
2019-05-23T05:07:42.143Z,101555.56
2019-05-23T05:10:12.462Z,101556.59
2019-05-23T05:12:41.807Z,101557.34
2019-05-23T05:15:10.150Z,101557.02
2019-05-23T05:17:38.598Z,101561.81
2019-05-23T05:20:07.397Z,101560.66
2019-05-23T05:22:36.358Z,101565.16
2019-05-23T05:25:05.603Z,101561.34
2019-05-23T05:27:34.906Z,101563.65
2019-05-23T05:30:05.130Z,101558.98
2019-05-23T05:32:44.043Z,101559.37
2019-05-23T05:35:04.883Z,101553.56
2019-05-23T05:37:33.474Z,101556.95
2019-05-23T05:40:01.836Z,101560.85
2019-05-23T05:42:30.382Z,101564.22
2019-05-23T05:44:58.857Z,101563.75
2019-05-23T05:47:28.674Z,101554.91
2019-05-23T05:49:57.001Z,101558.28
2019-05-23T05:52:25.428Z,101562.98
2019-05-23T05:54:53.719Z,101559.80
2019-05-23T05:57:22.354Z,101562.30
2019-05-23T05:59:50.727Z,101565.55
2019-05-23T06:02:19.903Z,101566.06
2019-05-23T06:04:48.310Z,101570.39
2019-05-23T06:07:27.261Z,101578.78
2019-05-23T06:09:57.251Z,101577.39
2019-05-23T06:12:25.731Z,101576.24
2019-05-23T06:14:54.108Z,101577.05
2019-05-23T06:17:22.517Z,101581.05
2019-05-23T06:19:50.956Z,101588.26
2019-05-23T06:22:19.299Z,101589.94
2019-05-23T06:24:53.206Z,101592.59
2019-05-23T06:27:20.108Z,101594.09
2019-05-23T06:29:48.610Z,101592.61
2019-05-23T06:32:18.581Z,101598.73
2019-05-23T06:34:48.046Z,101590.97
2019-05-23T06:37:16.722Z,101593.23
2019-05-23T06:39:45.327Z,101588.62
2019-05-23T06:42:13.617Z,101590.13
2019-05-23T06:44:41.902Z,101587.63
2019-05-23T06:47:11.585Z,101587.31
2019-05-23T06:49:40.102Z,101589.04
2019-05-23T06:52:08.551Z,101584.89
2019-05-23T06:54:37.010Z,101587.56
2019-05-23T06:57:05.551Z,101585.64
2019-05-23T06:59:33.859Z,101591.89
2019-05-23T07:02:02.885Z,101587.06
2019-05-23T07:04:31.581Z,101593.36
2019-05-23T07:07:01.509Z,101585.66
2019-05-23T07:09:30.348Z,101591.28
2019-05-23T07:11:59.106Z,101584.13
2019-05-23T07:14:28.332Z,101589.78
2019-05-23T07:16:56.713Z,101584.07
2019-05-23T07:19:25.006Z,101590.83
2019-05-23T07:21:53.583Z,101592.16
2019-05-23T07:24:21.868Z,101591.14
2019-05-23T07:26:50.144Z,101599.52
2019-05-23T07:29:18.521Z,101594.20
2019-05-23T07:31:47.071Z,101591.08
2019-05-23T07:34:16.014Z,101589.52
2019-05-23T07:36:44.614Z,101593.53
2019-05-23T07:39:13.128Z,101587.75
2019-05-23T07:41:41.582Z,101589.09
2019-05-23T07:44:09.990Z,101594.84
2019-05-23T07:46:38.547Z,101591.27
2019-05-23T07:49:07.017Z,101589.80
2019-05-23T07:51:35.371Z,101589.72
2019-05-23T07:54:17.270Z,101591.89
2019-05-23T07:56:45.624Z,101592.59
2019-05-23T07:59:13.916Z,101590.79
2019-05-23T08:01:44.704Z,101588.95
2019-05-23T08:04:21.506Z,101588.84
2019-05-23T08:06:43.856Z,101585.38
2019-05-23T08:09:13.780Z,101591.90
2019-05-23T08:11:42.200Z,101586.40
2019-05-23T08:14:12.262Z,101585.66
2019-05-23T08:16:40.862Z,101586.69
2019-05-23T08:19:09.223Z,101580.66
2019-05-23T08:21:37.502Z,101584.64
2019-05-23T08:24:06.642Z,101589.27
2019-05-23T08:26:35.411Z,101588.66
2019-05-23T08:29:24.659Z,101582.34
2019-05-23T08:31:35.837Z,101586.86
2019-05-23T08:34:05.065Z,101586.29
2019-05-23T08:36:33.612Z,101586.69
2019-05-23T08:39:03.563Z,101579.44
2019-05-23T08:41:32.385Z,101581.95
2019-05-23T08:44:01.264Z,101577.37
2019-05-23T08:46:31.767Z,101583.80
2019-05-23T08:49:00.718Z,101582.58
2019-05-23T08:51:29.027Z,101587.55
2019-05-23T08:53:57.506Z,101574.11
2019-05-23T08:56:25.857Z,101577.24
2019-05-23T08:58:54.305Z,101573.13
2019-05-23T09:01:22.673Z,101575.80
2019-05-23T09:03:51.246Z,101575.23
2019-05-23T09:06:20.125Z,101564.63
2019-05-23T09:08:50.042Z,101570.72
2019-05-23T09:11:19.333Z,101565.28
2019-05-23T09:13:47.615Z,101567.82
2019-05-23T09:16:16.536Z,101563.27
2019-05-23T09:18:44.838Z,101565.36
2019-05-23T09:21:13.124Z,101553.78
2019-05-23T09:23:41.528Z,101556.34
2019-05-23T09:26:09.809Z,101555.28
2019-05-23T09:28:38.990Z,101556.34
2019-05-23T09:31:09.074Z,101557.16
2019-05-23T09:33:37.430Z,101561.69
2019-05-23T09:36:05.799Z,101554.64
2019-05-23T09:38:34.081Z,101552.19
2019-05-23T09:41:02.509Z,101552.47
2019-05-23T09:43:30.816Z,101554.78
2019-05-23T09:45:59.164Z,101555.15
2019-05-23T09:48:27.739Z,101552.89
2019-05-23T09:50:56.132Z,101554.52
2019-05-23T09:53:24.829Z,101552.50
2019-05-23T09:55:55.763Z,101548.67
2019-05-23T09:58:23.423Z,101553.84
2019-05-23T10:00:51.904Z,101554.14
2019-05-23T10:03:20.353Z,101547.88
2019-05-23T10:05:48.670Z,101540.17
2019-05-23T10:08:17.021Z,101541.67
2019-05-23T10:10:45.803Z,101540.50
2019-05-23T10:13:14.617Z,101549.05
2019-05-23T10:15:47.416Z,101543.40
2019-05-23T10:18:17.353Z,101539.30
2019-05-23T10:20:46.010Z,101539.46
2019-05-23T10:23:14.387Z,101540.72
2019-05-23T10:25:42.797Z,101535.14
2019-05-23T10:28:11.151Z,101528.52
2019-05-23T10:30:39.539Z,101534.76
2019-05-23T10:33:11.955Z,101537.23
2019-05-23T10:35:38.622Z,101538.09
2019-05-23T10:38:06.924Z,101533.58
2019-05-23T10:40:35.325Z,101526.00
2019-05-23T10:43:04.060Z,101528.91
2019-05-23T10:45:32.719Z,101524.61
2019-05-23T10:48:01.292Z,101516.59
2019-05-23T10:50:43.501Z,101515.05
2019-05-23T10:52:59.652Z,101517.64
2019-05-23T10:55:28.075Z,101508.11
2019-05-23T10:57:56.361Z,101498.86
2019-05-23T11:00:26.099Z,101503.28
2019-05-23T11:02:54.568Z,101505.44
2019-05-23T11:05:22.959Z,101498.77
2019-05-23T11:07:51.567Z,101502.80
2019-05-23T11:10:19.982Z,101498.43
2019-05-23T11:12:48.329Z,101485.98
2019-05-23T11:15:16.608Z,101494.13
2019-05-23T11:17:44.947Z,101491.64
2019-05-23T11:20:13.398Z,101484.55
2019-05-23T11:22:42.553Z,101479.21
2019-05-23T11:25:15.207Z,101484.93
2019-05-23T11:27:44.163Z,101478.81
2019-05-23T11:30:17.336Z,101478.08
2019-05-23T11:32:45.943Z,101475.70
2019-05-23T11:35:15.695Z,101478.75
2019-05-23T11:37:43.993Z,101481.13
2019-05-23T11:40:12.299Z,101471.79
2019-05-23T11:42:40.574Z,101470.40
2019-05-23T11:45:08.929Z,101471.59
2019-05-23T11:47:37.503Z,101471.19
2019-05-23T11:50:06.717Z,101464.44
2019-05-23T11:52:35.003Z,101462.83
2019-05-23T11:55:05.187Z,101460.27
2019-05-23T11:57:37.286Z,101458.27
2019-05-23T12:00:06.411Z,101454.88
2019-05-23T12:02:42.086Z,101443.95
2019-05-23T12:05:12.026Z,101454.50
2019-05-23T12:07:40.463Z,101460.23
2019-05-23T12:10:09.331Z,101447.94
2019-05-23T12:12:37.657Z,101455.48
2019-05-23T12:15:09.021Z,101440.98
2019-05-23T12:17:37.479Z,101443.77
2019-05-23T12:20:07.040Z,101444.53
2019-05-23T12:22:36.220Z,101436.92
2019-05-23T12:25:21.457Z,101443.23
2019-05-23T12:27:36.720Z,101442.81
2019-05-23T12:30:08.061Z,101446.78
2019-05-23T12:32:36.349Z,101445.97
2019-05-23T12:35:11.123Z,101431.92
2019-05-23T12:37:36.554Z,101433.89
2019-05-23T12:40:08.246Z,101434.50
2019-05-23T12:42:36.569Z,101436.83
2019-05-23T12:45:07.317Z,101440.64
2019-05-23T12:47:37.251Z,101439.62
2019-05-23T12:50:08.514Z,101432.45
2019-05-23T12:52:36.985Z,101431.05
2019-05-23T12:55:05.433Z,101419.70
2019-05-23T12:57:33.764Z,101418.92
2019-05-23T13:00:02.133Z,101425.45
2019-05-23T13:02:30.764Z,101416.89
2019-05-23T13:04:59.450Z,101410.62
2019-05-23T13:07:36.473Z,101408.68
2019-05-23T13:09:58.294Z,101409.21
2019-05-23T13:12:27.156Z,101409.35
2019-05-23T13:14:58.656Z,101410.89
2019-05-23T13:17:25.480Z,101403.47
2019-05-23T13:19:53.960Z,101402.38
2019-05-23T13:22:22.300Z,101393.98
2019-05-23T13:24:53.086Z,101394.06
2019-05-23T13:27:20.909Z,101389.30
2019-05-23T13:29:49.344Z,101388.94
2019-05-23T13:32:17.913Z,101394.55
2019-05-23T13:34:46.267Z,101389.79
2019-05-23T13:37:17.031Z,101385.09
2019-05-23T13:39:45.505Z,101380.77
2019-05-23T13:42:13.785Z,101379.59
2019-05-23T13:44:42.123Z,101380.88
2019-05-23T13:47:10.542Z,101373.19
2019-05-23T13:49:38.823Z,101370.84
2019-05-23T13:52:07.136Z,101365.05
2019-05-23T13:54:36.946Z,101361.12
2019-05-23T13:57:05.602Z,101366.52
2019-05-23T13:59:34.119Z,101370.25
2019-05-23T14:02:02.455Z,101368.09
2019-05-23T14:04:30.915Z,101369.92
2019-05-23T14:07:00.854Z,101363.86
2019-05-23T14:09:29.227Z,101367.85
2019-05-23T14:12:20.090Z,101371.33
2019-05-23T14:14:27.906Z,101363.44
2019-05-23T14:17:03.296Z,101358.70
2019-05-23T14:19:31.879Z,101359.55
2019-05-23T14:22:00.228Z,101355.77
2019-05-23T14:24:28.583Z,101352.20
2019-05-23T14:26:58.637Z,101355.31
2019-05-23T14:29:26.958Z,101355.72
2019-05-23T14:32:05.692Z,101344.95
2019-05-23T14:34:34.729Z,101340.76
2019-05-23T14:37:04.648Z,101339.13
2019-05-23T14:39:34.600Z,101336.28
2019-05-23T14:42:07.444Z,101337.16
2019-05-23T14:44:35.747Z,101343.13
2019-05-23T14:47:21.044Z,101331.84
2019-05-23T14:49:59.951Z,101333.75
2019-05-23T14:52:38.780Z,101328.36
2019-05-23T14:55:10.635Z,101325.93
2019-05-23T14:57:39.267Z,101321.39
2019-05-23T15:00:08.947Z,101324.50
2019-05-23T15:02:37.231Z,101315.93
2019-05-23T15:05:09.247Z,101317.46
2019-05-23T15:07:37.623Z,101306.88
2019-05-23T15:10:07.160Z,101305.83
2019-05-23T15:12:36.476Z,101301.55
2019-05-23T15:15:08.095Z,101292.32
2019-05-23T15:17:36.437Z,101296.72
2019-05-23T15:20:07.104Z,101290.58
2019-05-23T15:22:35.589Z,101299.09
2019-05-23T15:25:06.639Z,101295.63
2019-05-23T15:27:35.077Z,101293.92
2019-05-23T15:30:05.677Z,101278.45
2019-05-23T15:32:33.927Z,101283.00
2019-05-23T15:35:02.298Z,101283.19
2019-05-23T15:37:30.676Z,101289.52
2019-05-23T15:39:59.338Z,101290.32
2019-05-23T15:42:27.728Z,101285.80
2019-05-23T15:44:56.067Z,101289.95
2019-05-23T15:47:26.042Z,101281.05
2019-05-23T15:49:55.974Z,101284.79
2019-05-23T15:52:34.573Z,101281.66
2019-05-23T15:55:10.055Z,101282.76
2019-05-23T15:57:55.282Z,101280.45
2019-05-23T16:00:25.205Z,101275.78
2019-05-23T16:03:03.769Z,101276.27
2019-05-23T16:05:32.056Z,101278.31
2019-05-23T16:08:00.745Z,101270.20
2019-05-23T16:10:29.883Z,101262.23
2019-05-23T16:12:59.259Z,101267.16
2019-05-23T16:15:27.574Z,101259.58
2019-05-23T16:17:56.322Z,101264.09
2019-05-23T16:20:24.628Z,101259.38
2019-05-23T16:22:52.913Z,101255.14
2019-05-23T16:25:21.382Z,101256.86
2019-05-23T16:27:49.726Z,101260.00
2019-05-23T16:30:18.015Z,101261.69
2019-05-23T16:32:46.832Z,101259.59
2019-05-23T16:35:15.428Z,101265.83
2019-05-23T16:37:43.765Z,101256.34
2019-05-23T16:40:12.064Z,101250.39
2019-05-23T16:42:40.403Z,101257.52
2019-05-23T16:45:08.756Z,101253.94
2019-05-23T16:47:37.150Z,101251.17
2019-05-23T16:50:06.000Z,101250.63
2019-05-23T16:52:34.348Z,101250.61
2019-05-23T16:55:04.297Z,101251.78
2019-05-23T16:57:40.224Z,101249.17
2019-05-23T17:00:27.035Z,101249.80
2019-05-23T17:02:57.022Z,101254.97
2019-05-23T17:05:41.814Z,101245.66
2019-05-23T17:08:29.910Z,101250.39
2019-05-23T17:10:59.882Z,101251.97
2019-05-23T17:13:32.220Z,101250.19
2019-05-23T17:16:02.510Z,101255.32
2019-05-23T17:18:32.811Z,101255.08
2019-05-23T17:21:11.593Z,101251.88
2019-05-23T17:23:57.759Z,101253.35
2019-05-23T17:26:31.562Z,101247.23
2019-05-23T17:29:01.589Z,101247.95
2019-05-23T17:31:37.286Z,101251.89
2019-05-23T17:34:05.750Z,101251.61
2019-05-23T17:36:34.144Z,101252.03
2019-05-23T17:39:02.427Z,101252.69
2019-05-23T17:41:30.900Z,101251.66
2019-05-23T17:43:59.271Z,101251.27
2019-05-23T17:46:28.860Z,101252.05
2019-05-23T17:48:57.236Z,101256.38
2019-05-23T17:51:25.584Z,101251.58
2019-05-23T17:53:53.993Z,101253.23
2019-05-23T17:56:22.302Z,101254.16
2019-05-23T17:58:51.052Z,101255.88
2019-05-23T18:01:20.371Z,101253.42
2019-05-23T18:03:48.733Z,101242.83
2019-05-23T18:06:17.200Z,101246.69
2019-05-23T18:08:45.736Z,101257.38
2019-05-23T18:11:14.499Z,101251.43
2019-05-23T18:13:42.787Z,101256.41
2019-05-23T18:16:12.185Z,101257.88
2019-05-23T18:18:40.469Z,101260.86
2019-05-23T18:21:09.286Z,101261.02
2019-05-23T18:23:38.587Z,101262.56
2019-05-23T18:26:07.233Z,101258.18
2019-05-23T18:28:36.066Z,101258.45
2019-05-23T18:31:15.370Z,101263.05
2019-05-23T18:33:43.743Z,101266.41
2019-05-23T18:36:12.662Z,101265.50
2019-05-23T18:38:42.226Z,101267.39
2019-05-23T18:41:10.845Z,101266.25
2019-05-23T18:43:42.074Z,101268.95
2019-05-23T18:46:11.997Z,101270.45
2019-05-23T18:48:40.356Z,101266.17
2019-05-23T18:51:08.935Z,101276.11
2019-05-23T18:53:37.353Z,101274.37
2019-05-23T18:56:05.875Z,101274.41
2019-05-23T18:58:34.209Z,101274.98
2019-05-23T19:01:07.087Z,101275.88
2019-05-23T19:03:36.538Z,101273.05
2019-05-23T19:06:04.814Z,101279.38
2019-05-23T19:08:34.168Z,101274.11
2019-05-23T19:11:18.983Z,101274.14
2019-05-23T19:13:32.526Z,101271.45
2019-05-23T19:16:00.847Z,101273.12
2019-05-23T19:18:29.987Z,101282.91
2019-05-23T19:20:59.491Z,101283.65
2019-05-23T19:23:27.810Z,101281.91
2019-05-23T19:25:56.185Z,101281.98
2019-05-23T19:28:25.107Z,101287.63
2019-05-23T19:30:54.272Z,101283.78
2019-05-23T19:33:23.230Z,101285.16
2019-05-23T19:35:51.778Z,101286.32
2019-05-23T19:38:20.249Z,101282.33
2019-05-23T19:40:48.538Z,101288.21
2019-05-23T19:43:17.694Z,101281.02
2019-05-23T19:45:46.071Z,101288.28
2019-05-23T19:48:14.378Z,101285.39
2019-05-23T19:50:44.471Z,101286.24
2019-05-23T19:53:12.753Z,101281.61
2019-05-23T19:55:41.033Z,101287.86
2019-05-23T19:58:09.881Z,101285.61
2019-05-23T20:00:38.938Z,101280.35
2019-05-23T20:03:08.188Z,101279.99
2019-05-23T20:05:47.436Z,101285.47
2019-05-23T20:08:16.068Z,101285.89
2019-05-23T20:10:44.598Z,101291.23
2019-05-23T20:13:12.901Z,101288.29
2019-05-23T20:15:45.745Z,101290.44
2019-05-23T20:18:12.420Z,101295.98
2019-05-23T20:20:41.167Z,101293.06
2019-05-23T20:23:10.146Z,101290.91
2019-05-23T20:25:38.549Z,101292.52
2019-05-23T20:28:07.333Z,101289.83
2019-05-23T20:30:48.561Z,101290.02
2019-05-23T20:33:16.882Z,101293.94
2019-05-23T20:35:45.242Z,101292.52
2019-05-23T20:38:13.621Z,101298.03
2019-05-23T20:40:42.076Z,101303.70
2019-05-23T20:43:10.978Z,101300.19
2019-05-23T20:45:39.401Z,101308.55
2019-05-23T20:48:07.684Z,101300.47
2019-05-23T20:50:36.175Z,101304.37
2019-05-23T20:53:04.499Z,101310.81
2019-05-23T20:55:32.855Z,101309.92
2019-05-23T20:58:01.167Z,101306.08
2019-05-23T21:00:34.260Z,101300.82
2019-05-23T21:03:03.354Z,101299.59
2019-05-23T21:05:31.726Z,101298.69
2019-05-23T21:08:00.032Z,101299.16
2019-05-23T21:10:45.553Z,101293.77
2019-05-23T21:13:13.966Z,101296.39
2019-05-23T21:15:42.549Z,101290.69
2019-05-23T21:18:11.078Z,101296.74
2019-05-23T21:20:39.398Z,101289.20
2019-05-23T21:23:07.789Z,101286.44
2019-05-23T21:25:37.766Z,101282.00
2019-05-23T21:28:06.256Z,101278.91
2019-05-23T21:30:34.576Z,101277.39
2019-05-23T21:33:02.850Z,101276.24
2019-05-23T21:35:31.801Z,101272.02
2019-05-23T21:38:00.138Z,101273.53
2019-05-23T21:40:37.747Z,101275.56
2019-05-23T21:43:06.214Z,101273.71
2019-05-23T21:45:35.555Z,101274.39
2019-05-23T21:48:04.212Z,101267.66
2019-05-23T21:50:32.868Z,101272.20
2019-05-23T21:53:01.166Z,101269.09
2019-05-23T21:55:37.586Z,101266.01
2019-05-23T21:58:06.508Z,101263.13
2019-05-23T22:01:06.959Z,101263.57
2019-05-23T22:03:45.751Z,101263.19
2019-05-23T22:06:16.570Z,101273.31
2019-05-23T22:08:45.071Z,101273.30
2019-05-23T22:11:13.436Z,101272.23
2019-05-23T22:13:42.209Z,101275.27
2019-05-23T22:16:10.586Z,101271.69
2019-05-23T22:18:38.891Z,101268.70
2019-05-23T22:21:07.422Z,101268.55
2019-05-23T22:23:35.870Z,101269.29
2019-05-23T22:26:04.234Z,101268.11
2019-05-23T22:28:32.505Z,101272.73
2019-05-23T22:31:00.825Z,101268.13
2019-05-23T22:33:30.749Z,101261.91
2019-05-23T22:36:00.501Z,101263.30
2019-05-23T22:38:28.911Z,101264.06
2019-05-23T22:40:57.194Z,101258.78
2019-05-23T22:43:25.555Z,101256.23
2019-05-23T22:45:53.941Z,101258.02
2019-05-23T22:48:22.228Z,101263.42
2019-05-23T22:50:50.646Z,101258.01
2019-05-23T22:53:18.952Z,101256.22
2019-05-23T22:55:47.252Z,101263.81
2019-05-23T22:58:15.626Z,101257.20
2019-05-23T23:00:45.708Z,101255.55
2019-05-23T23:03:13.997Z,101252.52
2019-05-23T23:05:42.485Z,101248.72
2019-05-23T23:08:11.007Z,101245.29
2019-05-23T23:10:39.378Z,101248.19
2019-05-23T23:13:07.747Z,101250.70
2019-05-23T23:15:36.415Z,101240.52
2019-05-23T23:18:04.775Z,101241.80
2019-05-23T23:20:33.261Z,101239.56
2019-05-23T23:23:01.555Z,101247.11
2019-05-23T23:25:29.884Z,101249.50
2019-05-23T23:27:58.220Z,101241.47
2019-05-23T23:30:28.139Z,101245.42
2019-05-23T23:32:56.619Z,101240.13
2019-05-23T23:35:24.862Z,101246.23
2019-05-23T23:37:53.140Z,101240.27
2019-05-23T23:40:21.427Z,101243.66
2019-05-23T23:42:49.704Z,101239.97
2019-05-23T23:45:35.750Z,101238.35
2019-05-23T23:48:22.155Z,101234.41
2019-05-23T23:51:08.283Z,101231.84
2019-05-23T23:53:54.595Z,101234.39
2019-05-23T23:56:40.587Z,101232.85
2019-05-23T23:59:08.176Z,101223.92
